This is the latest recevied weather packets stored in our database for station/object KJ6BBX. If no packets are shown the sender has not sent any weather packets the latest 10 day(s).
| Time | Temp. | Humidity | Pressure | Rain* | Wind** | Luminosity | Snow |
|---|---|---|---|---|---|---|---|
| 1778003415 | 19.44° C | 55% | 1006.8 hPa | 0 mm | - | 268 W/m² | - |
| 1778002514 | 20° C | 55% | 1006.3 hPa | 0 mm | - | 368 W/m² | - |
| 1778001615 | 19.44° C | 55% | 1006.2 hPa | 0 mm | - | 372 W/m² | - |
| 1778000715 | 19.44° C | 54% | 1006.2 hPa | 0 mm | - | 473 W/m² | - |
| 1777999814 | 18.33° C | 57% | 1006.1 hPa | 0 mm | - | 253 W/m² | - |
| 1777998914 | 19.44° C | 56% | 1006.2 hPa | 0 mm | - | 638 W/m² | - |
| 1777998014 | 18.33° C | 59% | 1006 hPa | 0 mm | - | 484 W/m² | - |
| 1777997115 | 17.22° C | 62% | 1005.9 hPa | 0 mm | - | 491 W/m² | - |
| 1777996215 | 16.67° C | 64% | 1005.7 hPa | 0 mm | - | 440 W/m² | - |
| 1777995314 | 15.56° C | 69% | 1005.9 hPa | 0 mm | - | 308 W/m² | - |
| 1777994414 | 15° C | 73% | 1005.9 hPa | 0 mm | - | 121 W/m² | - |
| 1777993515 | 13.89° C | 75% | 1005.9 hPa | 0 mm | - | 93 W/m² | - |
| 1777992614 | 12.78° C | 80% | 1005.6 hPa | 0 mm | - | 76 W/m² | - |
| 1777991715 | 11.11° C | 87% | 1005.7 hPa | 0 mm | - | 38 W/m² | - |
| 1777990814 | 10.56° C | 89% | 1005.5 hPa | 0 mm | - | 26 W/m² | - |
| 1777989914 | 10.56° C | 89% | 1005.6 hPa | 0 mm | - | 22 W/m² | - |
| 1777989014 | 10° C | 88% | 1005.6 hPa | 0 mm | - | 16 W/m² | - |
| 1777988114 | 10.56° C | 87% | 1005.6 hPa | 0 mm | - | 10 W/m² | - |
| 1777987214 | 10.56° C | 86% | 1005.3 hPa | 0 mm | - | 5 W/m² | - |
| 1777986314 | 10.56° C | 86% | 1005.3 hPa | 0 mm | - | 2 W/m² | - |
| 1777985414 | 10.56° C | 84% | 1005.2 hPa | 0 mm | - | 0 W/m² | - |
| 1777984514 | 11.11° C | 83% | 1005.3 hPa | 0 mm | - | 0 W/m² | - |
| 1777983614 | 11.11° C | 82% | 1005.3 hPa | 0 mm | - | 0 W/m² | - |
| 1777982715 | 11.67° C | 81% | 1005.1 hPa | 0 mm | - | 0 W/m² | - |
| 1777981814 | 12.22° C | 80% | 1005.4 hPa | 0 mm | - | 0 W/m² | - |
* Rain since midnight (hover to see other rain measurements)
** Current wind speed in m/s (hover to see current wind gust speed)